createdAt,value
2022-12-22T00:02:00.754Z,90.57
2022-12-22T00:04:47.113Z,90.29
2022-12-22T00:07:33.408Z,90.71
2022-12-22T00:10:19.760Z,90.66
2022-12-22T00:13:05.876Z,90.68
2022-12-22T00:15:54.166Z,90.89
2022-12-22T00:18:40.315Z,91.15
2022-12-22T00:21:31.552Z,91.10
2022-12-22T00:24:18.016Z,90.77
2022-12-22T00:27:05.263Z,90.79
2022-12-22T00:29:58.312Z,90.32
2022-12-22T00:32:50.607Z,90.74
2022-12-22T00:35:40.759Z,90.72
2022-12-22T00:38:32.594Z,91.16
2022-12-22T00:41:18.739Z,91.05
2022-12-22T00:44:05.381Z,90.79
2022-12-22T00:46:53.632Z,91.03
2022-12-22T00:49:41.427Z,90.38
2022-12-22T00:52:28.001Z,90.94
2022-12-22T00:55:14.457Z,90.38
2022-12-22T00:58:02.719Z,90.57
2022-12-22T01:00:48.926Z,90.60
2022-12-22T01:03:35.539Z,90.99
2022-12-22T01:06:22.682Z,90.96
2022-12-22T01:09:09.210Z,91.32
2022-12-22T01:11:55.411Z,91.32
2022-12-22T01:14:41.855Z,91.14
2022-12-22T01:17:29.130Z,90.97
2022-12-22T01:20:15.219Z,90.77
2022-12-22T01:23:01.427Z,90.93
2022-12-22T01:25:48.011Z,90.64
2022-12-22T01:28:35.075Z,90.79
2022-12-22T01:31:48.488Z,91.05
2022-12-22T01:34:35.383Z,90.94
2022-12-22T01:37:21.884Z,91.21
2022-12-22T01:40:08.518Z,90.65
2022-12-22T01:42:54.881Z,90.66
2022-12-22T01:45:44.976Z,90.82
2022-12-22T01:48:37.381Z,90.95
2022-12-22T01:51:39.486Z,90.65
2022-12-22T01:54:28.184Z,90.86
2022-12-22T01:57:14.435Z,90.84
2022-12-22T02:00:01.642Z,90.69
2022-12-22T02:02:58.642Z,91.13
2022-12-22T02:05:45.607Z,91.03
2022-12-22T02:08:52.324Z,90.89
2022-12-22T02:11:58.803Z,91.24
2022-12-22T02:15:04.925Z,91.20
2022-12-22T02:18:22.066Z,90.97
2022-12-22T02:21:14.397Z,91.10
2022-12-22T02:24:14.541Z,91.18
2022-12-22T02:27:05.001Z,91.50
2022-12-22T02:29:55.609Z,91.22
2022-12-22T02:32:45.036Z,91.35
2022-12-22T02:35:35.291Z,91.10
2022-12-22T02:38:43.569Z,91.21
2022-12-22T02:41:46.678Z,91.25
2022-12-22T02:44:45.427Z,91.23
2022-12-22T02:47:49.919Z,91.11
2022-12-22T02:50:43.145Z,91.29
2022-12-22T02:53:32.979Z,91.21
2022-12-22T02:56:23.771Z,90.85
2022-12-22T02:59:10.531Z,91.01
2022-12-22T03:01:58.665Z,91.06
2022-12-22T03:04:45.406Z,90.93
2022-12-22T03:07:32.915Z,91.03
2022-12-22T03:10:19.227Z,90.91
2022-12-22T03:13:05.639Z,91.21
2022-12-22T03:15:51.753Z,91.42
2022-12-22T03:18:38.351Z,91.39
2022-12-22T03:21:24.599Z,91.44
2022-12-22T03:24:11.215Z,91.05
2022-12-22T03:26:39.316Z,91.46
2022-12-22T03:29:06.964Z,90.74
2022-12-22T03:31:34.758Z,91.07
2022-12-22T03:34:02.689Z,91.24
2022-12-22T03:36:30.534Z,91.57
2022-12-22T03:38:58.550Z,91.65
2022-12-22T03:41:45.046Z,91.49
2022-12-22T03:44:31.625Z,91.33
2022-12-22T03:46:59.378Z,91.19
2022-12-22T03:49:27.162Z,90.93
2022-12-22T03:51:54.886Z,90.85
2022-12-22T03:54:24.941Z,90.95
2022-12-22T03:56:53.343Z,90.94
2022-12-22T03:59:21.167Z,91.08
2022-12-22T04:01:54.837Z,91.07
2022-12-22T04:04:25.561Z,90.83
2022-12-22T04:06:54.423Z,90.94
2022-12-22T04:09:22.744Z,91.03
2022-12-22T04:12:09.484Z,91.14
2022-12-22T04:14:37.361Z,91.17
2022-12-22T04:17:06.886Z,91.36
2022-12-22T04:19:34.680Z,91.34
2022-12-22T04:22:02.315Z,91.38
2022-12-22T04:24:30.042Z,91.30
2022-12-22T04:26:57.725Z,91.18
2022-12-22T04:29:25.457Z,91.20
2022-12-22T04:31:53.303Z,90.93
2022-12-22T04:34:21.227Z,91.17
2022-12-22T04:36:49.002Z,90.75
2022-12-22T04:39:16.704Z,90.70
2022-12-22T04:41:45.135Z,90.72
2022-12-22T04:44:12.884Z,90.58
2022-12-22T04:46:40.712Z,90.96
2022-12-22T04:49:08.426Z,90.95
2022-12-22T04:51:36.149Z,90.98
2022-12-22T05:06:00.716Z,91.11
2022-12-22T05:08:28.491Z,91.07
2022-12-22T05:10:56.190Z,91.09
2022-12-22T05:13:23.909Z,90.96
2022-12-22T05:15:51.659Z,91.17
2022-12-22T05:18:19.363Z,90.92
2022-12-22T05:20:47.023Z,91.20
2022-12-22T05:23:14.703Z,90.94
2022-12-22T05:25:42.450Z,90.98
2022-12-22T05:28:10.169Z,91.29
2022-12-22T05:30:37.903Z,91.01
2022-12-22T05:33:05.761Z,91.22
2022-12-22T05:35:33.472Z,91.22
2022-12-22T05:38:01.073Z,91.09
2022-12-22T05:40:28.761Z,91.10
2022-12-22T05:42:56.443Z,91.29
2022-12-22T05:45:24.075Z,91.14
2022-12-22T05:47:52.917Z,91.12
2022-12-22T05:50:24.342Z,91.23
2022-12-22T05:53:06.403Z,90.90
2022-12-22T05:55:34.420Z,90.85
2022-12-22T05:58:02.499Z,90.98
2022-12-22T06:00:32.104Z,90.75
2022-12-22T06:03:00.098Z,91.07
2022-12-22T06:05:27.921Z,90.96
2022-12-22T06:07:55.722Z,90.78
2022-12-22T06:10:23.868Z,90.77
2022-12-22T06:12:51.643Z,90.94
2022-12-22T06:15:20.113Z,90.78
2022-12-22T06:17:48.129Z,90.87
2022-12-22T06:20:15.849Z,90.74
2022-12-22T06:22:43.568Z,90.83
2022-12-22T06:25:17.708Z,90.73
2022-12-22T06:27:47.807Z,90.83
2022-12-22T06:30:16.566Z,90.60
2022-12-22T06:32:44.280Z,90.85
2022-12-22T06:35:12.159Z,91.01
2022-12-22T06:37:40.034Z,90.87
2022-12-22T06:40:08.643Z,91.03
2022-12-22T06:42:54.559Z,91.06
2022-12-22T06:45:22.799Z,91.09
2022-12-22T06:47:50.594Z,91.16
2022-12-22T06:50:18.330Z,91.34
2022-12-22T06:52:45.963Z,91.59
2022-12-22T06:55:13.681Z,91.56
2022-12-22T06:57:41.326Z,91.21
2022-12-22T07:00:09.939Z,90.75
2022-12-22T07:05:32.145Z,90.71
2022-12-22T07:08:07.671Z,90.75
2022-12-22T07:10:55.389Z,91.04
2022-12-22T07:13:24.477Z,90.92
2022-12-22T07:16:00.152Z,90.90
2022-12-22T07:18:31.281Z,90.71
2022-12-22T07:21:02.461Z,90.35
2022-12-22T07:23:31.113Z,90.24
2022-12-22T07:25:59.704Z,90.22
2022-12-22T07:28:27.578Z,90.11
2022-12-22T07:30:55.705Z,89.81
2022-12-22T07:33:23.516Z,90.16
2022-12-22T07:36:12.165Z,89.92
2022-12-22T07:38:42.319Z,89.99
2022-12-22T07:41:30.720Z,89.80
2022-12-22T07:44:01.030Z,89.99
2022-12-22T07:46:32.549Z,90.41
2022-12-22T07:49:19.210Z,90.55
2022-12-22T07:51:47.158Z,90.60
2022-12-22T07:54:16.120Z,90.15
2022-12-22T07:56:45.757Z,89.95
2022-12-22T07:59:13.617Z,89.67
2022-12-22T08:01:41.842Z,89.68
2022-12-22T08:04:10.790Z,89.23
2022-12-22T08:06:38.958Z,89.52
2022-12-22T08:09:07.770Z,89.55
2022-12-22T08:11:35.798Z,89.77
2022-12-22T08:14:03.549Z,89.11
2022-12-22T08:16:31.472Z,88.40
2022-12-22T08:18:59.350Z,87.74
2022-12-22T08:21:27.179Z,87.39
2022-12-22T08:23:55.131Z,87.25
2022-12-22T08:26:27.697Z,87.01
2022-12-22T08:28:58.016Z,87.11
2022-12-22T08:31:28.912Z,87.43
2022-12-22T08:33:59.867Z,87.62
2022-12-22T08:36:27.613Z,87.97
2022-12-22T08:38:56.298Z,87.92
2022-12-22T08:41:43.974Z,87.59
2022-12-22T08:44:11.657Z,87.58
2022-12-22T08:46:39.610Z,87.30
2022-12-22T08:49:07.501Z,87.41
2022-12-22T08:51:35.322Z,87.59
2022-12-22T08:54:05.481Z,87.77
2022-12-22T08:56:34.008Z,87.81
2022-12-22T08:59:05.426Z,88.06
2022-12-22T09:01:36.518Z,88.26
2022-12-22T09:04:06.851Z,88.26
2022-12-22T09:06:40.517Z,88.54
2022-12-22T09:09:11.366Z,88.20
2022-12-22T09:11:40.348Z,88.10
2022-12-22T09:14:09.784Z,87.93
2022-12-22T09:16:38.271Z,87.90
2022-12-22T09:19:07.141Z,87.94
2022-12-22T09:21:36.167Z,87.69
2022-12-22T09:24:07.576Z,87.73
2022-12-22T09:26:35.908Z,87.88
2022-12-22T09:29:04.251Z,88.18
2022-12-22T09:31:32.329Z,88.01
2022-12-22T09:34:00.697Z,87.93
2022-12-22T09:36:31.664Z,87.76
2022-12-22T09:39:04.745Z,87.66
2022-12-22T09:41:37.490Z,87.43
2022-12-22T09:44:12.988Z,87.40
2022-12-22T09:46:41.164Z,87.43
2022-12-22T09:49:15.922Z,87.87
2022-12-22T09:51:48.142Z,87.89
2022-12-22T09:54:16.440Z,87.89
2022-12-22T09:56:44.559Z,87.69
2022-12-22T09:59:18.612Z,87.48
2022-12-22T10:01:56.213Z,87.38
2022-12-22T10:04:36.144Z,87.08
2022-12-22T10:07:24.756Z,87.23
2022-12-22T10:09:52.605Z,87.21
2022-12-22T10:12:23.581Z,87.52
2022-12-22T10:14:54.163Z,87.82
2022-12-22T10:17:24.061Z,87.89
2022-12-22T10:19:54.400Z,88.17
2022-12-22T10:22:34.972Z,87.90
2022-12-22T10:25:05.140Z,87.36
2022-12-22T10:27:41.909Z,87.71
2022-12-22T10:30:23.342Z,87.34
2022-12-22T10:33:20.770Z,87.22
2022-12-22T10:35:53.134Z,87.27
2022-12-22T10:38:28.605Z,87.60
2022-12-22T10:41:04.783Z,87.87
2022-12-22T10:43:38.030Z,88.14
2022-12-22T10:46:06.241Z,87.95
2022-12-22T10:48:37.197Z,87.87
2022-12-22T10:51:08.260Z,87.92
2022-12-22T10:53:52.148Z,88.06
2022-12-22T10:56:21.913Z,88.10
2022-12-22T10:59:04.597Z,87.73
2022-12-22T11:01:36.503Z,87.42
2022-12-22T11:04:27.279Z,87.30
2022-12-22T11:06:58.535Z,87.26
2022-12-22T11:09:35.289Z,87.07
2022-12-22T11:12:19.416Z,87.04
2022-12-22T11:14:59.000Z,87.25
2022-12-22T11:17:29.515Z,87.14
2022-12-22T11:20:24.725Z,86.30
2022-12-22T11:22:52.447Z,86.04
2022-12-22T11:25:56.348Z,85.93
2022-12-22T11:29:01.835Z,85.89
2022-12-22T11:31:53.704Z,85.89
2022-12-22T11:34:36.726Z,86.22
2022-12-22T11:37:19.533Z,86.40
2022-12-22T11:39:59.715Z,86.17
2022-12-22T11:42:27.410Z,85.74
2022-12-22T11:45:11.738Z,85.42
2022-12-22T11:47:54.914Z,85.21
2022-12-22T11:51:01.128Z,85.24
2022-12-22T11:53:31.305Z,85.44
2022-12-22T11:56:17.433Z,85.63
2022-12-22T11:59:06.724Z,85.42
2022-12-22T12:02:05.249Z,85.27
2022-12-22T12:04:55.044Z,85.02
2022-12-22T12:07:42.922Z,85.40
2022-12-22T12:10:25.574Z,85.93
2022-12-22T12:13:25.555Z,86.02
2022-12-22T12:16:19.369Z,86.79
2022-12-22T12:19:26.883Z,87.09
2022-12-22T12:22:04.573Z,87.45
2022-12-22T12:24:40.609Z,87.36
2022-12-22T12:27:14.845Z,87.65
2022-12-22T12:32:59.738Z,87.85
2022-12-22T12:35:36.242Z,87.69
2022-12-22T12:39:08.785Z,87.86
2022-12-22T12:41:46.808Z,88.25
2022-12-22T12:44:17.785Z,88.60
2022-12-22T12:46:51.562Z,88.62
2022-12-22T12:49:59.125Z,88.33
2022-12-22T12:52:50.344Z,88.75
2022-12-22T12:55:32.965Z,88.62
2022-12-22T12:58:03.784Z,88.62
2022-12-22T13:00:34.715Z,88.82
2022-12-22T13:03:20.011Z,89.23
2022-12-22T13:06:00.718Z,89.37
2022-12-22T13:08:33.271Z,89.56
2022-12-22T13:11:00.826Z,89.77
2022-12-22T13:13:28.396Z,89.91
2022-12-22T13:16:02.262Z,89.80
2022-12-22T13:18:33.145Z,89.73
2022-12-22T13:21:50.296Z,89.70
2022-12-22T13:24:23.548Z,89.99
2022-12-22T13:26:45.070Z,89.82
2022-12-22T13:29:26.802Z,90.39
2022-12-22T13:32:02.435Z,90.86
2022-12-22T13:37:50.337Z,90.81
2022-12-22T13:40:21.352Z,90.22
2022-12-22T13:42:51.536Z,90.21
2022-12-22T13:45:34.519Z,90.28
2022-12-22T13:48:12.535Z,90.24
2022-12-22T13:50:47.299Z,90.39
2022-12-22T13:53:50.110Z,90.65
2022-12-22T13:56:18.192Z,90.68
2022-12-22T13:58:50.920Z,90.72
2022-12-22T14:01:20.187Z,90.84
2022-12-22T14:04:02.625Z,90.96
2022-12-22T14:06:37.302Z,90.85
2022-12-22T14:09:20.140Z,90.79
2022-12-22T14:12:00.221Z,90.50
2022-12-22T14:14:44.329Z,90.30
2022-12-22T14:17:37.801Z,90.43
2022-12-22T14:20:24.213Z,90.39
2022-12-22T14:22:57.598Z,90.50
2022-12-22T14:25:40.675Z,90.42
2022-12-22T14:28:19.261Z,90.49
2022-12-22T14:30:50.882Z,90.36
2022-12-22T14:33:26.631Z,90.61
2022-12-22T14:36:04.552Z,90.55
2022-12-22T14:38:40.938Z,90.25
2022-12-22T14:41:31.556Z,90.50
2022-12-22T14:44:00.119Z,90.33
2022-12-22T14:46:31.107Z,90.17
2022-12-22T14:49:01.712Z,90.40
2022-12-22T14:51:29.727Z,90.37
2022-12-22T14:53:59.779Z,90.48
2022-12-22T14:56:28.194Z,90.91
2022-12-22T14:59:11.282Z,90.62
2022-12-22T15:01:39.027Z,90.65
2022-12-22T15:04:20.012Z,90.73
2022-12-22T15:06:49.404Z,90.66
2022-12-22T15:09:17.043Z,90.73
2022-12-22T15:11:51.729Z,90.66
2022-12-22T15:14:23.260Z,90.54
2022-12-22T15:16:55.544Z,90.20
2022-12-22T15:19:23.958Z,90.12
2022-12-22T15:21:52.028Z,89.97
2022-12-22T15:24:19.725Z,89.96
2022-12-22T15:26:47.679Z,90.56
2022-12-22T15:29:15.354Z,90.62
2022-12-22T15:31:43.984Z,90.72
2022-12-22T15:34:16.399Z,90.39
2022-12-22T15:36:44.247Z,90.23
2022-12-22T15:39:14.876Z,90.15
2022-12-22T15:41:44.489Z,89.78
2022-12-22T15:44:13.181Z,90.03
2022-12-22T15:46:45.110Z,89.82
2022-12-22T15:49:20.095Z,90.00
2022-12-22T15:51:51.964Z,90.24
2022-12-22T15:54:20.564Z,90.19
2022-12-22T15:56:51.577Z,90.40
2022-12-22T15:59:27.393Z,90.28
2022-12-22T16:02:01.208Z,90.17
2022-12-22T16:04:30.177Z,90.20
2022-12-22T16:06:59.530Z,89.89
2022-12-22T16:09:32.504Z,89.68
2022-12-22T16:12:00.250Z,89.69
2022-12-22T16:14:31.176Z,89.93
2022-12-22T16:17:01.550Z,90.04
2022-12-22T16:19:29.168Z,90.09
2022-12-22T16:21:56.937Z,90.08
2022-12-22T16:24:33.009Z,89.84
2022-12-22T16:27:02.453Z,90.05
2022-12-22T16:29:30.814Z,90.13
2022-12-22T16:32:17.907Z,89.99
2022-12-22T16:34:45.998Z,89.90
2022-12-22T16:37:13.762Z,89.90
2022-12-22T16:39:41.474Z,89.58
2022-12-22T16:44:59.838Z,89.26
2022-12-22T16:47:33.633Z,89.45
2022-12-22T16:50:02.022Z,89.42
2022-12-22T16:52:41.164Z,89.39
2022-12-22T16:55:18.245Z,89.37
2022-12-22T16:57:46.449Z,89.51
2022-12-22T17:00:26.574Z,89.41
2022-12-22T17:03:02.799Z,89.41
2022-12-22T17:05:43.777Z,89.43
2022-12-22T17:08:33.925Z,89.44
2022-12-22T17:11:10.432Z,89.32
2022-12-22T17:13:39.050Z,89.29
2022-12-22T17:16:06.894Z,89.18
2022-12-22T17:18:36.143Z,89.23
2022-12-22T17:21:04.434Z,89.04
2022-12-22T17:23:39.650Z,89.06
2022-12-22T17:26:10.256Z,88.99
2022-12-22T17:28:39.264Z,88.90
2022-12-22T17:31:07.241Z,88.90
2022-12-22T17:33:34.939Z,88.72
2022-12-22T17:36:02.781Z,88.67
2022-12-22T17:38:30.811Z,88.51
2022-12-22T17:40:58.596Z,88.43
2022-12-22T17:43:26.423Z,88.38
2022-12-22T17:45:54.327Z,88.32
2022-12-22T17:48:21.964Z,88.14
2022-12-22T17:50:50.338Z,88.08
2022-12-22T17:53:20.059Z,88.24
2022-12-22T17:58:36.581Z,87.94
2022-12-22T18:01:04.206Z,87.97
2022-12-22T18:03:31.890Z,87.80
2022-12-22T18:05:59.963Z,87.66
2022-12-22T18:08:27.670Z,87.57
2022-12-22T18:10:55.632Z,87.53
2022-12-22T18:13:26.947Z,87.42
2022-12-22T18:15:57.759Z,87.45
2022-12-22T18:18:26.216Z,87.51
2022-12-22T18:21:07.606Z,87.62
2022-12-22T18:23:36.820Z,87.29
2022-12-22T18:26:08.413Z,87.32
2022-12-22T18:28:36.789Z,87.32
2022-12-22T18:31:04.591Z,87.26
2022-12-22T18:33:32.347Z,87.21
2022-12-22T18:36:00.254Z,87.24
2022-12-22T18:38:30.680Z,87.09
2022-12-22T18:40:58.487Z,87.04
2022-12-22T18:43:26.417Z,86.98
2022-12-22T18:45:54.255Z,87.10
2022-12-22T18:48:21.952Z,86.93
2022-12-22T18:50:49.911Z,87.26
2022-12-22T18:53:31.867Z,87.36
2022-12-22T18:56:00.322Z,87.22
2022-12-22T18:58:28.156Z,87.08
2022-12-22T19:00:56.462Z,86.94
2022-12-22T19:03:29.232Z,87.08
2022-12-22T19:05:57.767Z,87.00
2022-12-22T19:08:27.485Z,87.37
2022-12-22T19:10:56.075Z,87.48
2022-12-22T19:13:30.849Z,87.29
2022-12-22T19:15:58.666Z,87.26
2022-12-22T19:18:27.632Z,87.23
2022-12-22T19:20:56.243Z,86.96
2022-12-22T19:23:25.604Z,87.15
2022-12-22T19:26:02.169Z,87.10
2022-12-22T19:28:33.205Z,87.03
2022-12-22T19:31:01.042Z,87.22
2022-12-22T19:33:37.242Z,87.40
2022-12-22T19:36:05.566Z,87.35
2022-12-22T19:38:35.520Z,87.35
2022-12-22T19:41:04.372Z,87.44
2022-12-22T19:43:33.584Z,87.39
2022-12-22T19:46:01.305Z,87.08
2022-12-22T19:48:29.012Z,87.33
2022-12-22T19:50:56.735Z,87.42
2022-12-22T19:53:26.523Z,87.67
2022-12-22T19:55:56.816Z,87.52
2022-12-22T19:58:30.801Z,87.11
2022-12-22T20:00:58.959Z,87.08
2022-12-22T20:03:26.844Z,86.84
2022-12-22T20:05:54.595Z,86.73
2022-12-22T20:08:22.309Z,86.66
2022-12-22T20:10:54.609Z,86.90
2022-12-22T20:13:31.158Z,87.24
2022-12-22T20:15:59.516Z,87.28
2022-12-22T20:18:30.085Z,87.44
2022-12-22T20:21:07.711Z,87.45
2022-12-22T20:23:37.583Z,87.34
2022-12-22T20:26:14.814Z,87.18
2022-12-22T20:28:42.616Z,86.88
2022-12-22T20:31:13.508Z,86.89
2022-12-22T20:33:41.374Z,86.76
2022-12-22T20:36:32.209Z,86.81
2022-12-22T20:39:02.177Z,87.11
2022-12-22T20:41:29.889Z,87.37
2022-12-22T20:43:57.837Z,87.68
2022-12-22T20:46:28.613Z,87.13
2022-12-22T20:49:00.486Z,87.16
2022-12-22T20:51:30.775Z,86.90
2022-12-22T20:53:59.042Z,86.97
2022-12-22T20:56:29.857Z,87.08
2022-12-22T20:58:59.365Z,87.53
2022-12-22T21:04:48.734Z,87.79
2022-12-22T21:07:16.412Z,87.50
2022-12-22T21:09:44.182Z,87.18
2022-12-22T21:12:11.859Z,86.94
2022-12-22T21:14:39.883Z,86.82
2022-12-22T21:17:16.431Z,86.92
2022-12-22T21:19:44.343Z,86.97
2022-12-22T21:22:12.031Z,87.11
2022-12-22T21:24:41.815Z,86.95
2022-12-22T21:27:17.166Z,87.03
2022-12-22T21:29:44.916Z,87.05
2022-12-22T21:32:16.262Z,86.94
2022-12-22T21:34:43.933Z,86.93
2022-12-22T21:37:17.405Z,86.86
2022-12-22T21:39:45.456Z,86.72
2022-12-22T21:42:18.596Z,86.72
2022-12-22T21:44:46.512Z,86.87
2022-12-22T21:47:17.328Z,86.97
2022-12-22T21:49:45.129Z,87.06
2022-12-22T21:52:12.841Z,87.38
2022-12-22T21:54:40.575Z,87.49
2022-12-22T21:57:14.750Z,87.71
2022-12-22T21:59:42.517Z,87.95
2022-12-22T22:02:16.433Z,88.26
2022-12-22T22:04:48.370Z,88.58
2022-12-22T22:07:21.537Z,88.74
2022-12-22T22:09:49.184Z,89.07
2022-12-22T22:12:37.021Z,89.42
2022-12-22T22:15:06.600Z,89.68
2022-12-22T22:17:34.311Z,89.82
2022-12-22T22:20:02.179Z,89.99
2022-12-22T22:22:30.000Z,89.83
2022-12-22T22:24:57.795Z,89.79
2022-12-22T22:27:26.360Z,89.87
2022-12-22T22:29:53.969Z,89.91
2022-12-22T22:32:21.570Z,90.19
2022-12-22T22:34:49.477Z,90.41
2022-12-22T22:37:17.101Z,90.59
2022-12-22T22:39:44.853Z,90.56
2022-12-22T22:42:12.763Z,90.87
2022-12-22T22:44:40.433Z,90.50
2022-12-22T22:47:08.145Z,90.48
2022-12-22T22:49:35.794Z,90.57
2022-12-22T22:52:03.548Z,90.51
2022-12-22T22:54:32.783Z,90.50
2022-12-22T22:57:00.887Z,90.55
2022-12-22T22:59:28.541Z,90.89
2022-12-22T23:01:56.227Z,91.42
2022-12-22T23:04:24.030Z,91.40
2022-12-22T23:06:51.867Z,91.65
2022-12-22T23:09:19.567Z,91.84
2022-12-22T23:11:47.197Z,91.56
2022-12-22T23:14:14.908Z,91.62
2022-12-22T23:16:42.624Z,91.30
2022-12-22T23:19:10.473Z,91.41
2022-12-22T23:21:38.210Z,91.32
2022-12-22T23:34:33.217Z,92.01
2022-12-22T23:37:01.021Z,91.99
2022-12-22T23:39:28.706Z,92.05
2022-12-22T23:41:56.323Z,92.06
2022-12-22T23:44:23.922Z,92.03
2022-12-22T23:46:51.534Z,92.15
2022-12-22T23:49:19.379Z,92.23
2022-12-22T23:51:47.133Z,92.26
2022-12-22T23:54:14.767Z,92.30
2022-12-22T23:56:42.365Z,92.27
2022-12-22T23:59:09.990Z,92.29
